Time;durP1;ratioP1;P1;durP2;ratioP2;P2;SDS_P1;SDS_P2;PMS_P1;PMS_P2;Temp;Humidity;BMP_temperature;BMP_pressure;BME280_temperature;BME280_humidity;BME280_pressure;Samples;Min_cycle;Max_cycle;Signal;HPM_P1;HPM_P2
2023/12/05 00:04:23;;;;;;;0.38;0.25;;;;;;;13.39;100.00;100001.00;10434858;28;20045;-82
2023/12/05 00:09:25;;;;;;;0.73;0.45;;;;;;;13.13;100.00;99988.91;10446218;28;20053;-81
2023/12/05 00:14:27;;;;;;;0.20;0.20;;;;;;;12.83;100.00;99990.59;10441207;28;20047;-81
2023/12/05 00:19:29;;;;;;;0.13;0.10;;;;;;;13.90;100.00;99982.81;10447284;28;20080;-82
2023/12/05 00:24:31;;;;;;;0.47;0.47;;;;;;;14.36;100.00;99984.38;10444958;28;20466;-82
2023/12/05 00:29:33;;;;;;;0.30;0.30;;;;;;;13.63;100.00;99982.88;10452896;28;20124;-82
2023/12/05 00:34:34;;;;;;;0.63;0.52;;;;;;;13.39;100.00;99985.47;10434513;28;20049;-82
2023/12/05 00:39:36;;;;;;;0.20;0.20;;;;;;;13.18;100.00;99980.28;10455232;28;20052;-82
2023/12/05 00:44:38;;;;;;;0.40;0.40;;;;;;;13.40;100.00;99987.22;10440099;28;20056;-81
2023/12/05 00:49:40;;;;;;;0.10;0.10;;;;;;;13.36;100.00;99980.28;10440938;28;20069;-82
2023/12/05 00:54:42;;;;;;;1.30;0.90;;;;;;;13.56;100.00;99973.41;10457371;28;20079;-82
2023/12/05 00:59:43;;;;;;;0.10;0.10;;;;;;;13.06;100.00;99969.09;10433852;28;20556;-81
2023/12/05 01:04:45;;;;;;;0.00;0.00;;;;;;;13.90;100.00;99968.13;10441412;28;20071;-81
2023/12/05 01:09:48;;;;;;;0.30;0.30;;;;;;;13.95;100.00;99963.84;10453820;28;20045;-82
2023/12/05 01:14:50;;;;;;;0.03;0.03;;;;;;;14.07;100.00;99964.66;10447305;28;20535;-82
2023/12/05 01:19:51;;;;;;;0.38;0.38;;;;;;;13.95;100.00;99958.66;10424757;28;20041;-81
2023/12/05 01:24:54;;;;;;;0.25;0.25;;;;;;;13.36;100.00;99957.84;10440938;28;20477;-81
2023/12/05 01:29:56;;;;;;;0.08;0.08;;;;;;;13.84;100.00;99952.63;10440428;28;20037;-81
2023/12/05 01:34:58;;;;;;;0.05;0.05;;;;;;;13.73;100.00;99959.56;10447686;28;20056;-81
2023/12/05 01:40:01;;;;;;;0.70;0.70;;;;;;;13.78;100.00;99953.50;10425674;28;20040;-82
2023/12/05 01:45:06;;;;;;;0.10;0.10;;;;;;;14.09;100.00;99949.97;10420851;28;20045;-82
2023/12/05 01:50:22;;;;;;;0.00;0.00;;;;;;;14.48;100.00;99953.25;10437738;28;20127;-81
2023/12/05 01:55:28;;;;;;;0.00;0.00;;;;;;;13.98;100.00;99951.72;10442837;28;20044;-81
2023/12/05 02:00:30;;;;;;;0.15;0.15;;;;;;;14.72;100.00;99953.97;10448518;28;20495;-82
2023/12/05 02:05:32;;;;;;;0.30;0.20;;;;;;;14.71;100.00;99949.66;10434231;28;20044;-82
2023/12/05 02:10:34;;;;;;;0.00;0.00;;;;;;;13.82;100.00;99954.34;10434433;28;20072;-81
2023/12/05 02:15:37;;;;;;;0.00;0.00;;;;;;;14.58;100.00;99947.13;10427634;28;20385;-81
2023/12/05 02:20:51;;;;;;;0.10;0.10;;;;;;;14.68;100.00;99950.53;10425446;28;20048;-82
2023/12/05 02:26:06;;;;;;;0.00;0.00;;;;;;;13.49;100.00;99950.97;10446495;28;20045;-81
2023/12/05 02:31:08;;;;;;;0.00;0.00;;;;;;;14.30;100.00;99955.91;10459812;28;20392;-81
2023/12/05 02:36:48;;;;;;;2.60;1.75;;;;;;;14.62;100.00;99941.94;10428512;28;20055;-81
2023/12/05 02:41:56;;;;;;;0.25;0.25;;;;;;;14.53;100.00;99948.88;10428265;28;20068;-82
2023/12/05 02:47:26;;;;;;;0.80;0.80;;;;;;;14.67;100.00;99947.97;10460236;28;20135;-82
2023/12/05 02:52:28;;;;;;;0.00;0.00;;;;;;;14.46;100.00;99944.63;10451764;28;20055;-81
2023/12/05 02:57:30;;;;;;;0.20;0.20;;;;;;;14.97;100.00;99935.66;10437405;28;20131;-82
2023/12/05 03:02:32;;;;;;;0.00;0.00;;;;;;;14.54;100.00;99942.84;10439894;28;20107;-81
2023/12/05 03:07:33;;;;;;;0.40;0.40;;;;;;;14.08;100.00;99940.47;10443540;28;20441;-81
2023/12/05 03:12:35;;;;;;;0.63;0.63;;;;;;;15.43;100.00;99932.69;10433945;28;20488;-82
2023/12/05 03:17:37;;;;;;;1.38;0.52;;;;;;;15.44;100.00;99924.03;10442676;28;20503;-82
2023/12/05 03:22:39;;;;;;;0.05;0.05;;;;;;;14.22;100.00;99927.47;10431424;28;20048;-81
2023/12/05 03:27:40;;;;;;;0.30;0.30;;;;;;;14.57;100.00;99924.66;10480190;28;20041;-81
2023/12/05 03:32:42;;;;;;;0.10;0.10;;;;;;;14.67;100.00;99914.28;10460972;28;20058;-81
2023/12/05 03:37:44;;;;;;;0.10;0.10;;;;;;;14.70;100.00;99919.44;10444118;28;20044;-82
2023/12/05 03:42:46;;;;;;;0.40;0.40;;;;;;;13.81;100.00;99924.19;10446508;28;20064;-81
2023/12/05 03:47:48;;;;;;;0.38;0.30;;;;;;;14.39;100.00;99914.41;10446202;28;20091;-81
2023/12/05 03:52:50;;;;;;;2.38;0.63;;;;;;;13.64;100.00;99919.91;10447790;28;20404;-81
2023/12/05 03:57:51;;;;;;;0.15;0.15;;;;;;;14.52;100.00;99910.03;10453964;28;20437;-81
2023/12/05 04:02:55;;;;;;;0.50;0.50;;;;;;;13.71;100.00;99919.88;10443380;28;20041;-81
2023/12/05 04:07:56;;;;;;;0.60;0.50;;;;;;;14.39;100.00;99919.59;10425588;28;20041;-81
2023/12/05 04:12:58;;;;;;;1.00;0.65;;;;;;;14.45;100.00;99919.56;10453687;28;20052;-81
2023/12/05 04:18:00;;;;;;;1.30;0.68;;;;;;;13.63;100.00;99923.34;10452000;28;20071;-82
2023/12/05 04:23:02;;;;;;;0.10;0.10;;;;;;;14.04;100.00;99923.19;10447759;28;20080;-82
2023/12/05 04:28:04;;;;;;;0.22;0.17;;;;;;;13.46;100.00;99932.88;10459919;28;20045;-81
2023/12/05 04:33:06;;;;;;;0.10;0.10;;;;;;;14.41;100.00;99928.22;10455899;28;20495;-81
2023/12/05 04:38:07;;;;;;;0.32;0.32;;;;;;;14.18;100.00;99934.41;10430835;28;20049;-81
2023/12/05 04:43:09;;;;;;;0.93;0.93;;;;;;;14.65;100.00;99928.94;10441717;28;20099;-81
2023/12/05 04:48:11;;;;;;;0.47;0.47;;;;;;;15.01;100.00;99919.19;10443341;28;20488;-80
2023/12/05 04:53:13;;;;;;;0.40;0.40;;;;;;;14.19;100.00;99932.66;10455224;28;20059;-80
2023/12/05 04:58:15;;;;;;;1.00;0.57;;;;;;;14.78;100.00;99943.56;10448823;28;20055;-81
2023/12/05 05:03:17;;;;;;;0.00;0.00;;;;;;;14.30;100.00;99932.59;10429962;28;20076;-82
2023/12/05 05:08:19;;;;;;;1.20;0.77;;;;;;;14.59;100.00;99930.72;10449863;28;20060;-81
2023/12/05 05:13:21;;;;;;;0.57;0.55;;;;;;;13.90;100.00;99939.66;10431225;28;20094;-81
2023/12/05 05:18:23;;;;;;;0.05;0.05;;;;;;;14.12;100.00;99947.34;10443684;28;20492;-81
2023/12/05 05:23:25;;;;;;;0.10;0.10;;;;;;;14.33;100.00;99941.22;10447418;28;20048;-82
2023/12/05 05:28:27;;;;;;;0.63;0.47;;;;;;;14.73;100.00;99941.03;10439357;28;20104;-82
2023/12/05 05:33:28;;;;;;;0.60;0.45;;;;;;;14.96;100.00;99941.72;10450273;28;20068;-81
2023/12/05 05:38:30;;;;;;;0.40;0.30;;;;;;;14.13;100.00;99949.06;10439722;28;20499;-81
2023/12/05 05:43:32;;;;;;;0.45;0.45;;;;;;;14.02;100.00;99950.84;10455575;28;20458;-81
2023/12/05 05:48:34;;;;;;;0.80;0.80;;;;;;;14.16;100.00;99949.06;10456118;28;20098;-81
2023/12/05 05:53:36;;;;;;;0.22;0.22;;;;;;;12.69;100.00;99947.50;10430745;28;20377;-81
2023/12/05 05:58:37;;;;;;;0.10;0.10;;;;;;;13.16;100.00;99942.34;10429929;28;20135;-81
2023/12/05 06:03:40;;;;;;;1.23;0.75;;;;;;;13.90;100.00;99952.59;10442240;28;20165;-81
2023/12/05 06:08:43;;;;;;;0.38;0.35;;;;;;;13.49;100.00;99948.41;10447597;28;20032;-82
2023/12/05 06:13:45;;;;;;;0.43;0.43;;;;;;;12.89;100.00;99944.06;10466632;28;20036;-82
2023/12/05 06:18:47;;;;;;;0.10;0.10;;;;;;;12.77;100.00;99959.56;10465173;28;20132;-82
2023/12/05 06:23:48;;;;;;;0.70;0.52;;;;;;;13.11;100.00;99955.28;10474777;28;20044;-82
2023/12/05 06:28:50;;;;;;;0.30;0.30;;;;;;;12.86;100.00;99956.97;10461599;28;20029;-81
2023/12/05 06:34:07;;;;;;;0.80;0.35;;;;;;;13.79;100.00;99959.56;10434902;28;20051;-82
2023/12/05 06:39:09;;;;;;;0.08;0.08;;;;;;;13.33;100.00;99960.44;10458075;28;20115;-82
2023/12/05 06:44:11;;;;;;;0.00;0.00;;;;;;;13.94;100.00;99967.28;10440011;28;20045;-82
2023/12/05 06:49:13;;;;;;;2.13;0.73;;;;;;;14.80;100.00;99962.56;10459550;28;20086;-82
2023/12/05 06:54:14;;;;;;;0.45;0.43;;;;;;;14.08;100.00;99976.72;10475624;28;20475;-82
2023/12/05 06:59:16;;;;;;;0.52;0.52;;;;;;;13.10;100.00;99973.38;10463552;28;20475;-82
2023/12/05 07:04:18;;;;;;;0.73;0.73;;;;;;;13.66;100.00;99978.56;10457798;28;20155;-82
2023/12/05 07:09:21;;;;;;;0.20;0.17;;;;;;;13.30;100.00;99978.56;10452461;28;20495;-81
2023/12/05 07:14:23;;;;;;;1.35;1.23;;;;;;;13.49;100.00;99992.38;10472115;28;20472;-81
2023/12/05 07:19:25;;;;;;;0.00;0.00;;;;;;;13.79;100.00;99990.63;10455608;28;20045;-82
2023/12/05 07:24:27;;;;;;;1.33;1.08;;;;;;;13.78;100.00;99999.25;10455446;28;20051;-81
2023/12/05 07:29:29;;;;;;;0.63;0.50;;;;;;;13.74;100.00;100002.69;10440331;28;20170;-83
2023/12/05 07:34:31;;;;;;;0.22;0.22;;;;;;;13.42;100.00;100012.22;10430650;28;20080;-82
2023/12/05 07:39:33;;;;;;;0.60;0.50;;;;;;;14.42;100.00;100018.03;10431605;28;20475;-82
2023/12/05 07:44:35;;;;;;;0.22;0.20;;;;;;;13.55;100.00;100022.59;10451386;28;20136;-82
2023/12/05 07:49:38;;;;;;;1.05;0.95;;;;;;;13.70;100.00;100027.72;10433388;28;20436;-82
2023/12/05 07:54:40;;;;;;;0.63;0.63;;;;;;;13.43;100.00;100028.63;10441534;28;20049;-81
2023/12/05 07:59:42;;;;;;;0.45;0.45;;;;;;;13.05;100.00;100038.00;10452071;28;20385;-81
2023/12/05 08:04:44;;;;;;;0.60;0.60;;;;;;;13.91;100.00;100047.53;10441170;28;20053;-82
2023/12/05 08:09:46;;;;;;;0.30;0.30;;;;;;;14.00;100.00;100051.00;10453625;28;20076;-82
2023/12/05 08:14:48;;;;;;;0.68;0.65;;;;;;;13.78;100.00;100054.47;10445647;28;20045;-82
2023/12/05 08:19:50;;;;;;;2.22;0.52;;;;;;;13.73;100.00;100055.34;10456981;28;20059;-82
2023/12/05 08:24:52;;;;;;;0.08;0.08;;;;;;;13.71;100.00;100060.50;10423797;28;20041;-82
2023/12/05 08:29:54;;;;;;;1.20;1.10;;;;;;;14.23;100.00;100069.06;10423948;28;20496;-83
2023/12/05 08:34:56;;;;;;;0.57;0.57;;;;;;;13.88;100.00;100070.88;10444703;28;20072;-82
2023/12/05 08:39:58;;;;;;;1.02;1.00;;;;;;;13.86;100.00;100077.78;10440281;28;20131;-82
2023/12/05 08:45:00;;;;;;;0.10;0.10;;;;;;;13.32;100.00;100072.56;10439666;28;20049;-82
2023/12/05 08:50:02;;;;;;;0.13;0.13;;;;;;;13.31;100.00;100071.69;10442257;28;20072;-82
2023/12/05 08:55:05;;;;;;;0.10;0.10;;;;;;;14.17;100.00;100075.13;10430740;28;20053;-83
2023/12/05 09:00:08;;;;;;;1.50;0.70;;;;;;;13.63;100.00;100077.75;10439444;28;20033;-82
2023/12/05 09:05:10;;;;;;;0.63;0.50;;;;;;;13.51;100.00;100076.06;10439073;28;20073;-82
2023/12/05 09:10:12;;;;;;;0.50;0.50;;;;;;;12.78;100.00;100085.34;10438928;28;20079;-83
2023/12/05 09:15:14;;;;;;;0.08;0.08;;;;;;;13.92;100.00;100090.72;10438617;28;20076;-82
2023/12/05 09:20:16;;;;;;;1.80;0.75;;;;;;;13.79;100.00;100091.59;10438603;28;20072;-82
2023/12/05 09:25:17;;;;;;;2.10;0.68;;;;;;;13.28;100.00;100096.69;10446756;28;20049;-82
2023/12/05 09:30:19;;;;;;;0.43;0.43;;;;;;;13.64;100.00;100106.25;10439525;28;20045;-83
2023/12/05 09:35:21;;;;;;;1.95;1.05;;;;;;;13.18;100.00;100111.31;10398225;28;20049;-82
2023/12/05 09:40:23;;;;;;;1.17;0.65;;;;;;;13.85;100.00;100109.69;10438237;28;20116;-83
2023/12/05 09:45:33;;;;;;;1.17;0.52;;;;;;;13.75;100.00;100126.09;10438114;28;20133;-83
2023/12/05 09:50:35;;;;;;;;;;;;;;;14.21;100.00;100127.81;10439029;28;20064;-82
2023/12/05 09:55:39;;;;;;;0.93;0.52;;;;;;;13.98;100.00;100130.41;10445359;28;19925;-82
2023/12/05 10:00:43;;;;;;;0.22;0.22;;;;;;;13.16;100.00;100131.13;10443667;28;20080;-82
2023/12/05 10:05:47;;;;;;;2.50;0.98;;;;;;;13.02;100.00;100129.38;10438295;28;20045;-82
2023/12/05 10:10:50;;;;;;;0.60;0.43;;;;;;;13.28;100.00;100132.91;10438139;28;20099;-82
2023/12/05 10:15:52;;;;;;;0.77;0.77;;;;;;;13.14;100.00;100138.06;10419761;28;20095;-81
2023/12/05 10:20:54;;;;;;;0.60;0.60;;;;;;;13.77;100.00;100137.31;10439471;28;20423;-82
2023/12/05 10:25:56;;;;;;;0.15;0.15;;;;;;;13.50;100.00;100133.84;10448724;28;20041;-83
2023/12/05 10:30:58;;;;;;;1.42;1.27;;;;;;;13.44;100.00;100132.09;10448269;28;20534;-82
2023/12/05 10:36:08;;;;;;;0.45;0.15;;;;;;;12.88;100.00;100136.22;10437230;28;20426;-82
2023/12/05 10:41:10;;;;;;;0.43;0.43;;;;;;;13.02;100.00;100131.97;10436515;28;20484;-83
2023/12/05 10:46:12;;;;;;;0.93;0.45;;;;;;;12.60;100.00;100132.63;10402151;28;20088;-81
2023/12/05 10:51:14;;;;;;;0.00;0.00;;;;;;;14.02;100.00;100138.16;10423735;28;20049;-82
2023/12/05 10:56:18;;;;;;;0.40;0.40;;;;;;;13.31;100.00;100141.53;10439694;28;20448;-82
2023/12/05 11:01:21;;;;;;;0.40;0.30;;;;;;;13.41;100.00;100152.78;10463003;28;20037;-82
2023/12/05 11:06:25;;;;;;;0.30;0.30;;;;;;;14.17;100.00;100145.09;10426333;28;20454;-82
2023/12/05 11:11:29;;;;;;;0.80;0.73;;;;;;;14.62;100.00;100165.72;10434430;28;20041;-83
2023/12/05 11:16:37;;;;;;;0.32;0.32;;;;;;;12.98;100.00;100166.44;10442745;28;20072;-82
2023/12/05 11:22:15;;;;;;;0.43;0.43;;;;;;;12.81;100.00;100173.25;10453204;28;20098;-82
2023/12/05 11:27:31;;;;;;;0.43;0.28;;;;;;;13.60;100.00;100174.38;10423240;28;20049;-82
2023/12/05 11:33:03;;;;;;;0.40;0.40;;;;;;;12.90;100.00;100183.63;10455070;28;20045;-82
2023/12/05 11:38:19;;;;;;;0.10;0.10;;;;;;;13.36;100.00;100185.53;10422984;28;20049;-82
2023/12/05 11:43:21;;;;;;;0.20;0.20;;;;;;;13.18;100.00;100194.09;10442229;28;20404;-82
2023/12/05 11:48:24;;;;;;;0.00;0.00;;;;;;;12.79;100.00;100191.34;10441354;28;20041;-82
2023/12/05 11:53:26;;;;;;;0.82;0.82;;;;;;;13.06;100.00;100194.91;10441353;28;20531;-82
2023/12/05 11:58:29;;;;;;;0.00;0.00;;;;;;;13.04;100.00;100198.34;10440464;28;20102;-82
2023/12/05 12:03:52;;;;;;;1.02;0.88;;;;;;;14.16;100.00;100199.47;10447376;28;20103;-82
2023/12/05 12:08:56;;;;;;;2.92;1.73;;;;;;;13.20;100.00;100207.91;10437568;28;20392;-82
2023/12/05 12:14:11;;;;;;;0.90;0.68;;;;;;;12.94;100.00;100213.81;10439438;28;20433;-81
2023/12/05 12:19:15;;;;;;;0.10;0.10;;;;;;;12.90;100.00;100217.25;10457615;28;20067;-82
2023/12/05 12:24:22;;;;;;;0.85;0.43;;;;;;;13.56;100.00;100224.44;10451169;28;20045;-81
2023/12/05 12:29:25;;;;;;;0.00;0.00;;;;;;;12.76;100.00;100221.47;10455511;28;20056;-82
2023/12/05 12:34:27;;;;;;;1.00;0.85;;;;;;;13.13;100.00;100229.41;10457494;28;20040;-82
2023/12/05 12:39:30;;;;;;;0.80;0.75;;;;;;;13.18;100.00;100225.97;10453334;28;20040;-82
2023/12/05 12:44:32;;;;;;;1.23;0.73;;;;;;;12.79;100.00;100231.81;10443279;28;20128;-82
2023/12/05 12:49:34;;;;;;;0.45;0.45;;;;;;;13.16;100.00;100235.47;10439447;28;20072;-81
2023/12/05 12:54:38;;;;;;;1.05;0.95;;;;;;;12.48;100.00;100236.78;10426084;28;20053;-81
2023/12/05 12:59:41;;;;;;;0.70;0.38;;;;;;;13.61;100.00;100234.81;10456152;28;20484;-82
2023/12/05 13:04:44;;;;;;;2.20;1.30;;;;;;;13.49;100.00;100236.47;10435350;28;20079;-82
2023/12/05 13:09:48;;;;;;;0.45;0.25;;;;;;;13.51;100.00;100238.22;10440339;28;20040;-82
2023/12/05 13:14:51;;;;;;;1.38;1.20;;;;;;;13.27;100.00;100245.88;10447329;28;20128;-82
2023/12/05 13:20:04;;;;;;;0.28;0.28;;;;;;;12.60;100.00;100265.31;10447813;28;20136;-82
2023/12/05 13:25:06;;;;;;;0.10;0.10;;;;;;;12.40;100.00;100264.28;10435968;28;20075;-82
2023/12/05 13:30:08;;;;;;;0.82;0.82;;;;;;;12.85;100.00;100258.56;10441037;28;20140;-82
2023/12/05 13:35:12;;;;;;;2.83;1.55;;;;;;;13.11;100.00;100275.09;10441841;28;20522;-82
2023/12/05 13:40:14;;;;;;;0.25;0.25;;;;;;;13.72;100.00;100284.84;10439127;28;20051;-83
2023/12/05 13:45:16;;;;;;;0.80;0.47;;;;;;;12.64;100.00;100287.72;10465409;28;20047;-86
2023/12/05 13:50:21;;;;;;;0.20;0.20;;;;;;;13.14;100.00;100296.66;10460063;28;20090;-80
2023/12/05 13:55:23;;;;;;;1.50;1.30;;;;;;;13.38;100.00;100295.09;10436655;28;20475;-82
2023/12/05 14:00:25;;;;;;;1.17;0.55;;;;;;;13.02;100.00;100297.47;10445702;28;20106;-81
2023/12/05 14:05:27;;;;;;;1.10;1.00;;;;;;;12.89;100.00;100303.41;10412722;28;20049;-82
2023/12/05 14:10:29;;;;;;;0.22;0.22;;;;;;;11.99;100.00;100305.22;10429633;28;20041;-81
2023/12/05 14:15:31;;;;;;;0.08;0.08;;;;;;;12.16;100.00;100317.44;10444010;28;20128;-81
2023/12/05 14:20:33;;;;;;;0.80;0.68;;;;;;;12.66;100.00;100321.31;10442243;28;20049;-81
2023/12/05 14:25:35;;;;;;;0.50;0.50;;;;;;;12.46;100.00;100331.50;10432449;28;20458;-82
2023/12/05 14:30:37;;;;;;;0.00;0.00;;;;;;;12.66;100.00;100332.53;10442891;28;20041;-81
2023/12/05 14:35:39;;;;;;;0.55;0.47;;;;;;;11.63;100.00;100337.47;10425516;28;20462;-82
2023/12/05 14:40:42;;;;;;;0.60;0.60;;;;;;;12.88;100.00;100345.63;10446092;28;20136;-80
2023/12/05 14:45:44;;;;;;;0.52;0.52;;;;;;;12.27;100.00;100357.16;10449486;28;20508;-80
2023/12/05 14:50:46;;;;;;;0.57;0.55;;;;;;;13.13;100.00;100359.59;10443626;28;20129;-81
2023/12/05 14:55:47;;;;;;;1.20;0.63;;;;;;;12.89;100.00;100369.75;10440097;28;20045;-81
2023/12/05 15:00:49;;;;;;;0.43;0.43;;;;;;;12.19;100.00;100380.31;10450029;28;20495;-83
2023/12/05 15:05:52;;;;;;;0.50;0.50;;;;;;;12.03;100.00;100384.44;10455777;28;20074;-81
2023/12/05 15:10:54;;;;;;;0.57;0.50;;;;;;;12.64;100.00;100393.69;10433791;28;20049;-83
2023/12/05 15:15:55;;;;;;;0.15;0.15;;;;;;;12.37;100.00;100405.47;10446824;28;20492;-81
2023/12/05 15:20:57;;;;;;;0.70;0.70;;;;;;;13.43;100.00;100416.75;10453129;28;20042;-80
2023/12/05 15:25:59;;;;;;;1.17;0.35;;;;;;;12.00;100.00;100417.97;10444164;28;20102;-81
2023/12/05 15:31:01;;;;;;;0.38;0.38;;;;;;;11.18;100.00;100415.94;10443592;28;20037;-81
2023/12/05 15:36:08;;;;;;;0.50;0.50;;;;;;;12.09;100.00;100426.69;10457814;28;20045;-81
2023/12/05 15:41:10;;;;;;;0.10;0.10;;;;;;;13.03;100.00;100437.94;10459442;28;20079;-81
2023/12/05 15:46:22;;;;;;;0.00;0.00;;;;;;;13.16;100.00;100444.09;10449392;28;20072;-81
2023/12/05 15:51:24;;;;;;;0.00;0.00;;;;;;;14.52;100.00;100451.75;10451139;28;20045;-82
2023/12/05 15:56:27;;;;;;;0.00;0.00;;;;;;;11.99;100.00;100461.84;10450457;28;20169;-81
2023/12/05 16:01:29;;;;;;;1.55;1.45;;;;;;;12.97;100.00;100466.34;10427431;28;20036;-81
2023/12/05 16:06:31;;;;;;;0.50;0.50;;;;;;;13.20;100.00;100482.06;10425113;28;20053;-81
2023/12/05 16:11:33;;;;;;;3.72;0.80;;;;;;;13.33;100.00;100489.09;10435205;28;20068;-82
2023/12/05 16:16:38;;;;;;;9.20;2.75;;;;;;;13.15;100.00;100500.16;10475817;28;20044;-81
2023/12/05 16:21:40;;;;;;;0.65;0.63;;;;;;;13.13;100.00;100509.59;10449601;28;20094;-83
2023/12/05 16:26:42;;;;;;;0.77;0.77;;;;;;;12.56;100.00;100519.34;10444651;28;20043;-80
2023/12/05 16:31:44;;;;;;;0.25;0.25;;;;;;;12.82;100.00;100521.38;10442796;28;20037;-81
2023/12/05 16:36:45;;;;;;;0.45;0.45;;;;;;;11.87;100.00;100516.72;10441742;28;21008;-81
2023/12/05 16:41:47;;;;;;;1.23;0.93;;;;;;;12.67;100.00;100522.06;10439465;28;20037;-80
2023/12/05 16:46:49;;;;;;;1.67;1.35;;;;;;;13.07;100.00;100521.63;10443900;28;20045;-80
2023/12/05 16:51:51;;;;;;;0.30;0.30;;;;;;;13.29;100.00;100528.69;10435224;28;20041;-82
2023/12/05 16:56:53;;;;;;;0.60;0.30;;;;;;;13.06;100.00;100532.81;10459892;28;20063;-81
2023/12/05 17:01:55;;;;;;;0.55;0.40;;;;;;;12.45;100.00;100526.13;10465185;28;20404;-81
2023/12/05 17:06:57;;;;;;;0.25;0.25;;;;;;;11.91;100.00;100544.31;10436652;28;20041;-82
2023/12/05 17:11:58;;;;;;;0.80;0.60;;;;;;;14.21;100.00;100547.50;10482222;28;20040;-81
2023/12/05 17:17:02;;;;;;;4.15;0.88;;;;;;;14.36;100.00;100562.25;10454814;28;20048;-82
2023/12/05 17:22:07;;;;;;;0.70;0.70;;;;;;;13.55;100.00;100561.75;10450821;28;20392;-82
2023/12/05 17:27:09;;;;;;;0.00;0.00;;;;;;;13.56;100.00;100568.66;10468344;28;20070;-82
2023/12/05 17:32:12;;;;;;;2.03;1.35;;;;;;;12.97;100.00;100565.50;10458430;28;20064;-81
2023/12/05 17:37:15;;;;;;;0.40;0.40;;;;;;;13.85;100.00;100569.75;10454222;28;20570;-82
2023/12/05 17:42:18;;;;;;;7.03;1.98;;;;;;;12.14;100.00;100577.38;10441281;28;20052;-81
2023/12/05 17:47:21;;;;;;;0.10;0.10;;;;;;;13.05;100.00;100582.81;10451816;28;20068;-81
2023/12/05 17:52:25;;;;;;;0.08;0.08;;;;;;;12.68;100.00;100597.06;10438871;28;20056;-81
2023/12/05 17:57:26;;;;;;;1.98;1.40;;;;;;;12.69;100.00;100601.38;10439291;28;20049;-81
2023/12/05 18:02:28;;;;;;;0.75;0.75;;;;;;;14.04;100.00;100606.97;10468537;28;20068;-81
2023/12/05 18:07:37;;;;;;;0.55;0.55;;;;;;;13.86;100.00;100618.06;10463596;28;20049;-81
2023/12/05 18:12:58;;;;;;;0.17;0.17;;;;;;;13.72;100.00;100612.78;10428530;28;20124;-81
2023/12/05 18:18:00;;;;;;;0.28;0.25;;;;;;;13.99;100.00;100621.63;10465169;28;20095;-82
2023/12/05 18:23:02;;;;;;;0.45;0.45;;;;;;;14.67;100.00;100625.50;10455417;28;20041;-82
2023/12/05 18:28:04;;;;;;;0.08;0.08;;;;;;;14.31;100.00;100639.09;10459533;28;20040;-82
2023/12/05 18:33:06;;;;;;;3.03;2.00;;;;;;;12.98;100.00;100647.41;10442200;28;20045;-81
2023/12/05 18:38:08;;;;;;;1.10;1.08;;;;;;;14.02;100.00;100644.97;10460554;28;20056;-82
2023/12/05 18:43:10;;;;;;;0.47;0.43;;;;;;;12.71;100.00;100650.50;10456184;28;20095;-81
2023/12/05 18:48:12;;;;;;;0.40;0.40;;;;;;;13.76;100.00;100650.78;10463730;28;20076;-82
2023/12/05 18:53:15;;;;;;;0.00;0.00;;;;;;;13.94;100.00;100663.91;10454206;28;20037;-82
2023/12/05 18:58:16;;;;;;;0.52;0.52;;;;;;;13.14;100.00;100676.03;10450329;28;20463;-81
2023/12/05 19:03:18;;;;;;;3.92;2.15;;;;;;;13.61;100.00;100680.84;10438799;28;20053;-82
2023/12/05 19:08:20;;;;;;;0.10;0.10;;;;;;;13.05;100.00;100689.69;10465811;28;20060;-82
2023/12/05 19:13:22;;;;;;;0.00;0.00;;;;;;;14.85;100.00;100693.88;10451065;28;20065;-82
2023/12/05 19:18:25;;;;;;;1.35;1.25;;;;;;;13.24;100.00;100701.13;10456193;28;20226;-81
2023/12/05 19:23:27;;;;;;;1.58;0.68;;;;;;;12.89;100.00;100716.19;10430084;28;20049;-81
2023/12/05 19:28:30;;;;;;;0.43;0.43;;;;;;;13.28;100.00;100710.69;10449783;28;20561;-82
2023/12/05 19:33:39;;;;;;;1.17;1.08;;;;;;;12.08;100.00;100707.25;10436182;28;20102;-82
2023/12/05 19:38:41;;;;;;;1.02;0.93;;;;;;;13.39;100.00;100705.66;10463156;28;20045;-82
2023/12/05 19:43:43;;;;;;;1.25;0.63;;;;;;;13.05;100.00;100709.53;10454416;28;20068;-82
2023/12/05 19:48:45;;;;;;;4.90;1.85;;;;;;;12.29;100.00;100722.25;10443969;28;20071;-82
2023/12/05 19:53:47;;;;;;;0.93;0.93;;;;;;;12.98;100.00;100724.97;10447071;28;20064;-82
2023/12/05 19:58:50;;;;;;;0.75;0.75;;;;;;;12.37;100.00;100724.94;10462203;28;20145;-82
2023/12/05 20:03:52;;;;;;;0.22;0.22;;;;;;;13.36;100.00;100722.84;10436174;28;20049;-82
2023/12/05 20:08:54;;;;;;;0.40;0.40;;;;;;;12.80;100.00;100730.75;10465701;28;20048;-82
2023/12/05 20:13:56;;;;;;;0.45;0.45;;;;;;;12.45;100.00;100731.09;10441830;28;20049;-82
2023/12/05 20:18:58;;;;;;;0.93;0.55;;;;;;;12.81;100.00;100737.63;10442861;28;20090;-82
2023/12/05 20:24:02;;;;;;;3.58;1.65;;;;;;;12.74;100.00;100745.31;10459304;28;20048;-82
2023/12/05 20:29:04;;;;;;;0.10;0.10;;;;;;;12.56;100.00;100746.75;10444686;28;20499;-82
2023/12/05 20:34:05;;;;;;;0.43;0.43;;;;;;;12.75;100.00;100754.81;10458350;28;20075;-83
2023/12/05 20:39:09;;;;;;;2.60;0.55;;;;;;;13.00;100.00;100762.03;10453961;28;20055;-83
2023/12/05 20:44:11;;;;;;;0.30;0.30;;;;;;;13.41;100.00;100757.41;10440388;28;20052;-82
2023/12/05 20:49:13;;;;;;;0.32;0.32;;;;;;;12.43;100.00;100766.41;10443865;28;20041;-82
2023/12/05 20:54:15;;;;;;;0.40;0.40;;;;;;;13.27;100.00;100767.56;10461960;28;20048;-82
2023/12/05 20:59:17;;;;;;;0.98;0.88;;;;;;;13.87;100.00;100768.28;10469342;28;20056;-83
2023/12/05 21:04:19;;;;;;;0.60;0.60;;;;;;;12.81;100.00;100772.97;10455872;28;20041;-83
2023/12/05 21:09:21;;;;;;;0.38;0.35;;;;;;;11.89;100.00;100780.91;10465644;28;20103;-83
2023/12/05 21:14:24;;;;;;;0.25;0.25;;;;;;;13.44;100.00;100771.25;10452111;28;20086;-82
2023/12/05 21:19:27;;;;;;;3.38;1.85;;;;;;;12.90;100.00;100786.06;10443493;28;20305;-82
2023/12/05 21:24:29;;;;;;;0.95;0.47;;;;;;;11.40;100.00;100784.28;10439618;28;20045;-82
2023/12/05 21:29:35;;;;;;;0.63;0.63;;;;;;;12.58;100.00;100786.44;10451354;28;20041;-82
2023/12/05 21:34:40;;;;;;;2.78;1.40;;;;;;;13.37;100.00;100794.41;10446293;28;20574;-83
2023/12/05 21:39:42;;;;;;;0.25;0.25;;;;;;;13.15;100.00;100788.97;10438539;28;20076;-83
2023/12/05 21:44:44;;;;;;;0.25;0.25;;;;;;;12.87;100.00;100804.09;10441788;28;20049;-82
2023/12/05 21:49:46;;;;;;;3.17;2.80;;;;;;;12.19;100.00;100810.75;10422087;28;20449;-82
2023/12/05 21:54:48;;;;;;;1.10;1.08;;;;;;;12.36;100.00;100817.09;10397372;28;20562;-82
2023/12/05 21:59:51;;;;;;;0.10;0.10;;;;;;;12.80;100.00;100817.78;10420549;28;20045;-82
2023/12/05 22:04:52;;;;;;;2.10;1.85;;;;;;;12.05;100.00;100826.00;10447409;28;20041;-82
2023/12/05 22:09:54;;;;;;;3.45;2.08;;;;;;;12.91;100.00;100826.59;10442354;28;20044;-82
2023/12/05 22:14:57;;;;;;;0.38;0.38;;;;;;;13.77;100.00;100829.47;10450777;28;20036;-83
2023/12/05 22:19:58;;;;;;;0.00;0.00;;;;;;;14.05;100.00;100828.88;10479402;28;20041;-82
2023/12/05 22:25:00;;;;;;;0.30;0.30;;;;;;;12.91;100.00;100836.91;10443756;28;20099;-82
2023/12/05 22:30:03;;;;;;;0.47;0.32;;;;;;;13.24;100.00;100847.72;10465232;28;20041;-82
2023/12/05 22:35:05;;;;;;;0.57;0.57;;;;;;;13.22;100.00;100852.88;10441326;28;20080;-82
2023/12/05 22:40:07;;;;;;;0.35;0.35;;;;;;;12.97;100.00;100862.88;10462070;28;20117;-82
2023/12/05 22:45:10;;;;;;;0.45;0.45;;;;;;;12.17;100.00;100875.28;10430254;28;20049;-82
2023/12/05 22:50:12;;;;;;;0.10;0.10;;;;;;;12.49;100.00;100863.78;10444418;28;20546;-83
2023/12/05 22:55:13;;;;;;;2.17;1.30;;;;;;;12.69;100.00;100867.59;10428227;28;20158;-83
2023/12/05 23:00:23;;;;;;;0.70;0.70;;;;;;;12.97;100.00;100868.03;10443708;28;20118;-82
2023/12/05 23:05:28;;;;;;;4.07;1.17;;;;;;;12.98;100.00;100874.97;10490033;28;20037;-82